createdAt,value
2023-06-30T00:00:02.014Z,18.26
2023-06-30T00:01:01.504Z,18.25
2023-06-30T00:02:03.604Z,18.25
2023-06-30T00:03:01.553Z,18.24
2023-06-30T00:04:02.038Z,18.23
2023-06-30T00:05:01.314Z,18.22
2023-06-30T00:06:01.795Z,18.22
2023-06-30T00:07:02.305Z,18.21
2023-06-30T00:08:03.325Z,18.2
2023-06-30T00:09:02.162Z,18.2
2023-06-30T00:10:03.207Z,18.19
2023-06-30T00:11:02.050Z,18.2
2023-06-30T00:12:03.113Z,18.21
2023-06-30T00:13:03.556Z,18.21
2023-06-30T00:14:03.007Z,18.19
2023-06-30T00:15:03.441Z,18.18
2023-06-30T00:16:02.309Z,18.19
2023-06-30T00:17:01.709Z,18.2
2023-06-30T00:18:02.194Z,18.21
2023-06-30T00:19:03.273Z,18.21
2023-06-30T00:20:02.089Z,18.2
2023-06-30T00:21:03.154Z,18.19
2023-06-30T00:22:03.613Z,18.2
2023-06-30T00:23:03.064Z,18.21
2023-06-30T00:24:03.510Z,18.21
2023-06-30T00:25:01.326Z,18.21
2023-06-30T00:26:01.770Z,18.2
2023-06-30T00:27:02.234Z,18.18
2023-06-30T00:28:03.312Z,18.17
2023-06-30T00:29:03.789Z,18.14
2023-06-30T00:30:01.621Z,18.14
2023-06-30T00:31:02.087Z,18.14
2023-06-30T00:32:03.155Z,18.14
2023-06-30T00:33:01.953Z,18.12
2023-06-30T00:34:03.056Z,18.12
2023-06-30T00:35:01.897Z,18.12
2023-06-30T00:36:02.948Z,18.13
2023-06-30T00:37:01.788Z,18.14
2023-06-30T00:38:02.303Z,18.15
2023-06-30T00:39:01.728Z,18.17
2023-06-30T00:40:03.876Z,18.17
2023-06-30T00:41:03.288Z,18.15
2023-06-30T00:42:03.652Z,18.15
2023-06-30T00:43:03.148Z,18.18
2023-06-30T00:44:01.968Z,18.18
2023-06-30T00:45:01.524Z,18.17
2023-06-30T00:46:01.884Z,18.18
2023-06-30T00:47:01.409Z,18.18
2023-06-30T00:48:03.511Z,18.17
2023-06-30T00:49:02.242Z,18.17
2023-06-30T00:50:01.693Z,18.17
2023-06-30T00:51:03.773Z,18.15
2023-06-30T00:52:01.607Z,18.14
2023-06-30T00:53:03.690Z,18.13
2023-06-30T00:54:01.546Z,18.12
2023-06-30T00:55:03.639Z,18.1
2023-06-30T00:56:01.432Z,18.11
2023-06-30T00:57:01.925Z,18.11
2023-06-30T00:58:01.353Z,18.1
2023-06-30T00:59:01.816Z,18.1
2023-06-30T01:00:01.252Z,18.11
2023-06-30T01:01:03.370Z,18.11
2023-06-30T01:02:02.301Z,18.11
2023-06-30T01:03:01.692Z,18.12
2023-06-30T01:04:02.200Z,18.11
2023-06-30T01:05:01.536Z,18.1
2023-06-30T01:06:01.990Z,18.09
2023-06-30T01:07:03.202Z,18.1
2023-06-30T01:08:01.892Z,18.1
2023-06-30T01:09:01.344Z,18.08
2023-06-30T01:10:03.465Z,18.08
2023-06-30T01:11:02.915Z,18.08
2023-06-30T01:12:01.721Z,18.08
2023-06-30T01:13:02.180Z,18.08
2023-06-30T01:14:03.265Z,18.07
2023-06-30T01:15:03.717Z,18.05
2023-06-30T01:16:03.161Z,18.06
2023-06-30T01:17:01.989Z,18.06
2023-06-30T01:18:01.569Z,18.06
2023-06-30T01:19:01.891Z,18.05
2023-06-30T01:20:01.386Z,18.04
2023-06-30T01:21:01.812Z,18.05
2023-06-30T01:22:01.297Z,18.05
2023-06-30T01:23:03.317Z,18.04
2023-06-30T01:24:03.878Z,18.04
2023-06-30T01:25:03.270Z,18.05
2023-06-30T01:26:02.124Z,18.05
2023-06-30T01:27:03.218Z,18.05
2023-06-30T01:28:03.601Z,18.05
2023-06-30T01:29:03.063Z,18.04
2023-06-30T01:30:03.514Z,18.02
2023-06-30T01:31:02.951Z,18
2023-06-30T01:32:01.727Z,17.99
2023-06-30T01:33:02.237Z,17.99
2023-06-30T01:34:03.276Z,17.98
2023-06-30T01:35:02.079Z,17.98
2023-06-30T01:36:01.550Z,17.97
2023-06-30T01:37:02.019Z,17.99
2023-06-30T01:38:01.472Z,17.99
2023-06-30T01:39:03.534Z,17.98
2023-06-30T01:40:01.346Z,17.97
2023-06-30T01:41:03.436Z,17.96
2023-06-30T01:42:03.865Z,17.95
2023-06-30T01:43:03.334Z,17.93
2023-06-30T01:44:03.771Z,17.92
2023-06-30T01:45:03.226Z,17.91
2023-06-30T01:46:02.134Z,17.9
2023-06-30T01:47:01.465Z,17.9
2023-06-30T01:48:02.095Z,17.89
2023-06-30T01:49:01.446Z,17.88
2023-06-30T01:50:03.528Z,17.85
2023-06-30T01:51:01.348Z,17.84
2023-06-30T01:52:01.824Z,17.84
2023-06-30T01:53:03.919Z,17.85
2023-06-30T01:54:01.694Z,17.84
2023-06-30T01:55:03.758Z,17.82
2023-06-30T01:56:03.207Z,17.82
2023-06-30T01:57:03.628Z,17.8
2023-06-30T01:58:03.152Z,17.8
2023-06-30T01:59:03.561Z,17.79
2023-06-30T02:00:01.344Z,17.79
2023-06-30T02:01:03.440Z,17.78
2023-06-30T02:02:02.325Z,17.79
2023-06-30T02:03:01.724Z,17.79
2023-06-30T02:04:03.877Z,17.77
2023-06-30T02:05:03.208Z,17.76
2023-06-30T02:06:03.685Z,17.73
2023-06-30T02:07:01.481Z,17.72
2023-06-30T02:08:03.561Z,17.7
2023-06-30T02:09:01.388Z,17.69
2023-06-30T02:10:01.944Z,17.7
2023-06-30T02:11:02.270Z,17.72
2023-06-30T02:12:01.766Z,17.69
2023-06-30T02:13:02.164Z,17.68
2023-06-30T02:14:03.269Z,17.66
2023-06-30T02:15:02.082Z,17.67
2023-06-30T02:16:01.584Z,17.68
2023-06-30T02:17:03.570Z,17.68
2023-06-30T02:18:03.077Z,17.68
2023-06-30T02:19:03.508Z,17.68
2023-06-30T02:20:01.418Z,17.67
2023-06-30T02:21:03.465Z,17.66
2023-06-30T02:22:02.252Z,17.65
2023-06-30T02:23:03.371Z,17.63
2023-06-30T02:24:02.190Z,17.63
2023-06-30T02:25:03.286Z,17.62
2023-06-30T02:26:02.099Z,17.61
2023-06-30T02:27:01.544Z,17.6
2023-06-30T02:28:01.994Z,17.56
2023-06-30T02:29:01.447Z,17.54
2023-06-30T02:30:03.572Z,17.5
2023-06-30T02:31:03.020Z,17.47
2023-06-30T02:32:03.437Z,17.43
2023-06-30T02:33:02.267Z,17.37
2023-06-30T02:34:01.729Z,17.33
2023-06-30T02:35:03.902Z,17.29
2023-06-30T02:36:03.274Z,17.25
2023-06-30T02:37:03.689Z,17.22
2023-06-30T02:38:01.511Z,17.21
2023-06-30T02:39:01.994Z,17.21
2023-06-30T02:40:03.052Z,17.21
2023-06-30T02:41:01.903Z,17.22
2023-06-30T02:42:01.370Z,17.24
2023-06-30T02:43:03.443Z,17.29
2023-06-30T02:44:02.232Z,17.32
2023-06-30T02:45:03.317Z,17.35
2023-06-30T02:46:03.837Z,17.39
2023-06-30T02:47:01.545Z,17.44
2023-06-30T02:48:02.034Z,17.46
2023-06-30T02:49:03.142Z,17.47
2023-06-30T02:50:01.946Z,17.47
2023-06-30T02:51:03.023Z,17.49
2023-06-30T02:52:01.849Z,17.5
2023-06-30T02:53:02.925Z,17.5
2023-06-30T02:54:01.755Z,17.52
2023-06-30T02:55:02.225Z,17.53
2023-06-30T02:56:01.649Z,17.53
2023-06-30T02:57:02.092Z,17.54
2023-06-30T02:58:03.227Z,17.55
2023-06-30T02:59:01.993Z,17.55
2023-06-30T03:00:01.445Z,17.55
2023-06-30T03:01:02.661Z,17.55
2023-06-30T03:02:03.125Z,17.55
2023-06-30T03:03:01.893Z,17.54
2023-06-30T03:04:04.063Z,17.52
2023-06-30T03:05:01.709Z,17.52
2023-06-30T03:06:03.785Z,17.56
2023-06-30T03:07:01.654Z,17.61
2023-06-30T03:08:03.694Z,17.6
2023-06-30T03:09:03.186Z,17.56
2023-06-30T03:10:01.922Z,17.54
2023-06-30T03:11:03.114Z,17.51
2023-06-30T03:12:01.799Z,17.49
2023-06-30T03:13:03.912Z,17.46
2023-06-30T03:14:03.326Z,17.45
2023-06-30T03:15:02.166Z,17.43
2023-06-30T03:16:01.581Z,17.43
2023-06-30T03:17:03.853Z,17.45
2023-06-30T03:18:03.295Z,17.44
2023-06-30T03:19:03.554Z,17.44
2023-06-30T03:20:03.162Z,17.43
2023-06-30T03:21:01.823Z,17.41
2023-06-30T03:22:02.937Z,17.41
2023-06-30T03:23:01.741Z,17.43
2023-06-30T03:24:02.170Z,17.45
2023-06-30T03:25:01.615Z,17.45
2023-06-30T03:26:03.712Z,17.43
2023-06-30T03:27:01.528Z,17.44
2023-06-30T03:28:01.972Z,17.44
2023-06-30T03:29:01.446Z,17.43
2023-06-30T03:30:01.887Z,17.43
2023-06-30T03:31:01.354Z,17.43
2023-06-30T03:32:01.750Z,17.43
2023-06-30T03:33:03.957Z,17.41
2023-06-30T03:34:01.662Z,17.4
2023-06-30T03:35:03.790Z,17.39
2023-06-30T03:36:03.281Z,17.38
2023-06-30T03:37:02.042Z,17.37
2023-06-30T03:38:01.505Z,17.37
2023-06-30T03:39:03.607Z,17.36
2023-06-30T03:40:01.405Z,17.37
2023-06-30T03:41:03.505Z,17.35
2023-06-30T03:42:01.258Z,17.35
2023-06-30T03:43:01.717Z,17.35
2023-06-30T03:44:02.188Z,17.36
2023-06-30T03:45:03.279Z,17.37
2023-06-30T03:46:02.129Z,17.37
2023-06-30T03:47:03.224Z,17.38
2023-06-30T03:48:03.762Z,17.38
2023-06-30T03:49:01.441Z,17.4
2023-06-30T03:50:03.522Z,17.41
2023-06-30T03:51:02.950Z,17.43
2023-06-30T03:52:03.424Z,17.43
2023-06-30T03:53:02.263Z,17.41
2023-06-30T03:54:03.333Z,17.4
2023-06-30T03:55:03.789Z,17.38
2023-06-30T03:56:03.320Z,17.38
2023-06-30T03:57:02.044Z,17.39
2023-06-30T03:58:01.493Z,17.4
2023-06-30T03:59:03.614Z,17.41
2023-06-30T04:00:03.059Z,17.43
2023-06-30T04:01:03.521Z,17.44
2023-06-30T04:02:02.273Z,17.45
2023-06-30T04:03:01.896Z,17.47
2023-06-30T04:04:04.154Z,17.48
2023-06-30T04:05:01.779Z,17.5
2023-06-30T04:06:02.076Z,17.51
2023-06-30T04:07:01.709Z,17.52
2023-06-30T04:08:02.124Z,17.52
2023-06-30T04:09:01.463Z,17.51
2023-06-30T04:10:01.977Z,17.52
2023-06-30T04:11:01.385Z,17.53
2023-06-30T04:12:01.861Z,17.53
2023-06-30T04:13:01.253Z,17.53
2023-06-30T04:14:03.361Z,17.55
2023-06-30T04:15:02.184Z,17.55
2023-06-30T04:16:03.335Z,17.56
2023-06-30T04:17:02.052Z,17.58
2023-06-30T04:18:03.278Z,17.61
2023-06-30T04:19:03.592Z,17.61
2023-06-30T04:20:01.459Z,17.62
2023-06-30T04:21:01.958Z,17.62
2023-06-30T04:22:05.076Z,17.63
2023-06-30T04:23:01.818Z,17.63
2023-06-30T04:25:03.390Z,17.65
2023-06-30T04:26:03.859Z,17.66
2023-06-30T04:27:01.662Z,17.67
2023-06-30T04:28:03.750Z,17.69
2023-06-30T04:29:01.616Z,17.72
2023-06-30T04:30:03.690Z,17.74
2023-06-30T04:31:03.134Z,17.75
2023-06-30T04:32:01.927Z,17.76
2023-06-30T04:33:03.033Z,17.77
2023-06-30T04:34:01.783Z,17.78
2023-06-30T04:36:03.439Z,17.81
2023-06-30T04:37:03.787Z,17.83
2023-06-30T04:38:03.333Z,17.83
2023-06-30T04:39:02.040Z,17.84
2023-06-30T04:40:03.094Z,17.87
2023-06-30T04:41:03.605Z,17.88
2023-06-30T04:42:01.340Z,17.89
2023-06-30T04:43:03.477Z,17.91
2023-06-30T04:44:03.923Z,17.92
2023-06-30T04:45:03.452Z,17.93
2023-06-30T04:46:02.239Z,17.94
2023-06-30T04:47:03.312Z,17.95
2023-06-30T04:48:02.089Z,17.96
2023-06-30T04:49:01.549Z,17.96
2023-06-30T04:50:03.591Z,17.97
2023-06-30T04:51:01.437Z,17.98
2023-06-30T04:52:01.900Z,17.98
2023-06-30T04:53:02.988Z,17.99
2023-06-30T04:54:01.811Z,18
2023-06-30T04:55:02.272Z,18.02
2023-06-30T04:56:03.348Z,18.03
2023-06-30T04:57:03.785Z,18.04
2023-06-30T04:58:01.614Z,18.04
2023-06-30T04:59:02.052Z,18.04
2023-06-30T05:00:01.529Z,18.04
2023-06-30T05:01:03.671Z,18.04
2023-06-30T05:02:03.100Z,18.05
2023-06-30T05:03:03.639Z,18.07
2023-06-30T05:04:01.476Z,18.08
2023-06-30T05:05:01.903Z,18.11
2023-06-30T05:06:01.309Z,18.12
2023-06-30T05:07:03.605Z,18.13
2023-06-30T05:08:02.199Z,18.13
2023-06-30T05:09:03.370Z,18.14
2023-06-30T05:10:02.106Z,18.15
2023-06-30T05:11:01.565Z,18.17
2023-06-30T05:12:02.016Z,18.18
2023-06-30T05:13:01.508Z,18.2
2023-06-30T05:14:03.556Z,18.24
2023-06-30T05:15:03.033Z,18.27
2023-06-30T05:16:01.917Z,18.29
2023-06-30T05:17:01.368Z,18.29
2023-06-30T05:18:03.493Z,18.3
2023-06-30T05:19:03.817Z,18.32
2023-06-30T05:20:01.591Z,18.33
2023-06-30T05:21:03.758Z,18.35
2023-06-30T05:22:01.501Z,18.39
2023-06-30T05:23:03.627Z,18.42
2023-06-30T05:24:01.442Z,18.44
2023-06-30T05:25:01.878Z,18.47
2023-06-30T05:26:02.996Z,18.48
2023-06-30T05:27:03.548Z,18.49
2023-06-30T05:28:02.228Z,18.5
2023-06-30T05:29:05.184Z,18.51
2023-06-30T05:30:02.129Z,18.52
2023-06-30T05:31:03.361Z,18.52
2023-06-30T05:32:02.015Z,18.53
2023-06-30T05:33:01.531Z,18.57
2023-06-30T05:34:03.554Z,18.64
2023-06-30T05:35:01.368Z,18.7
2023-06-30T05:36:01.838Z,18.8
2023-06-30T05:37:01.284Z,18.87
2023-06-30T05:38:03.525Z,18.92
2023-06-30T05:39:02.195Z,18.97
2023-06-30T05:40:03.346Z,19.01
2023-06-30T05:41:03.716Z,19.03
2023-06-30T05:42:01.516Z,19.04
2023-06-30T05:43:03.613Z,19.08
2023-06-30T05:44:01.411Z,19.12
2023-06-30T05:45:03.653Z,19.13
2023-06-30T05:46:02.958Z,19.15
2023-06-30T05:47:03.589Z,19.2
2023-06-30T05:48:02.245Z,19.23
2023-06-30T05:49:03.337Z,19.28
2023-06-30T05:50:03.717Z,19.3
2023-06-30T05:51:03.248Z,19.33
2023-06-30T05:52:01.971Z,19.35
2023-06-30T05:53:01.463Z,19.37
2023-06-30T05:54:01.911Z,19.41
2023-06-30T05:55:02.992Z,19.45
2023-06-30T05:56:01.792Z,19.52
2023-06-30T05:57:03.878Z,19.61
2023-06-30T05:58:03.322Z,19.67
2023-06-30T05:59:02.161Z,19.73
2023-06-30T06:00:03.257Z,19.77
2023-06-30T06:01:03.659Z,19.81
2023-06-30T06:02:01.472Z,19.87
2023-06-30T06:03:02.040Z,19.9
2023-06-30T06:04:01.705Z,19.9
2023-06-30T06:05:03.781Z,19.9
2023-06-30T06:06:01.382Z,19.91
2023-06-30T06:07:03.354Z,19.99
2023-06-30T06:08:03.826Z,20.07
2023-06-30T06:09:03.277Z,20.12
2023-06-30T06:10:02.093Z,20.16
2023-06-30T06:11:01.553Z,20.19
2023-06-30T06:12:03.812Z,20.22
2023-06-30T06:13:03.107Z,20.27
2023-06-30T06:14:01.855Z,20.33
2023-06-30T06:15:02.929Z,20.41
2023-06-30T06:16:03.377Z,20.49
2023-06-30T06:17:03.893Z,20.57
2023-06-30T06:18:03.289Z,20.63
2023-06-30T06:19:02.101Z,20.7
2023-06-30T06:20:01.534Z,20.83
2023-06-30T06:21:02.016Z,20.95
2023-06-30T06:22:03.106Z,21.03
2023-06-30T06:23:03.671Z,21.11
2023-06-30T06:24:01.318Z,21.17
2023-06-30T06:25:01.806Z,21.2
2023-06-30T06:26:03.882Z,21.22
2023-06-30T06:27:01.690Z,21.27
2023-06-30T06:28:03.793Z,21.35
2023-06-30T06:29:01.591Z,21.44
2023-06-30T06:30:02.083Z,21.46
2023-06-30T06:31:03.246Z,21.52
2023-06-30T06:32:03.810Z,21.61
2023-06-30T06:33:03.150Z,21.66
2023-06-30T06:34:01.898Z,21.69
2023-06-30T06:35:01.347Z,21.73
2023-06-30T06:36:03.418Z,21.74
2023-06-30T06:37:02.194Z,21.75
2023-06-30T06:38:03.302Z,21.77
2023-06-30T06:39:03.829Z,21.79
2023-06-30T06:40:01.592Z,21.78
2023-06-30T06:41:02.067Z,21.79
2023-06-30T06:42:03.152Z,21.88
2023-06-30T06:43:03.688Z,21.93
2023-06-30T06:44:03.069Z,21.93
2023-06-30T06:45:03.475Z,21.88
2023-06-30T06:46:02.958Z,21.87
2023-06-30T06:47:03.399Z,21.9
2023-06-30T06:48:03.816Z,21.9
2023-06-30T06:49:01.671Z,21.93
2023-06-30T06:50:02.136Z,21.98
2023-06-30T06:51:01.535Z,22.03
2023-06-30T06:52:01.995Z,22.04
2023-06-30T06:53:01.460Z,22.07
2023-06-30T06:54:03.545Z,22.1
2023-06-30T06:55:01.309Z,22.08
2023-06-30T06:56:01.790Z,22.09
2023-06-30T06:57:02.249Z,22.08
2023-06-30T06:58:03.366Z,22.1
2023-06-30T06:59:03.740Z,22.13
2023-06-30T07:00:03.843Z,22.21
2023-06-30T07:01:03.861Z,22.32
2023-06-30T07:02:03.126Z,22.39
2023-06-30T07:03:03.599Z,22.46
2023-06-30T07:04:01.322Z,22.5
2023-06-30T07:05:03.488Z,22.61
2023-06-30T07:06:02.241Z,22.7
2023-06-30T07:07:01.748Z,22.77
2023-06-30T07:08:02.111Z,22.72
2023-06-30T07:09:01.600Z,22.8
2023-06-30T07:10:02.081Z,22.92
2023-06-30T07:11:03.143Z,22.97
2023-06-30T07:12:03.534Z,23.02
2023-06-30T07:13:01.471Z,23.07
2023-06-30T07:14:01.831Z,23.11
2023-06-30T07:15:01.312Z,23.14
2023-06-30T07:16:01.792Z,23.16
2023-06-30T07:17:02.232Z,23.13
2023-06-30T07:18:03.360Z,23.13
2023-06-30T07:19:03.951Z,23.09
2023-06-30T07:20:01.605Z,23.07
2023-06-30T07:21:03.737Z,23.03
2023-06-30T07:22:01.488Z,23.06
2023-06-30T07:23:01.903Z,23.16
2023-06-30T07:24:03.020Z,23.11
2023-06-30T07:25:03.452Z,23.09
2023-06-30T07:27:03.371Z,23.22
2023-06-30T07:28:03.825Z,23.31
2023-06-30T07:29:03.242Z,23.4
2023-06-30T07:30:03.802Z,23.5
2023-06-30T07:31:01.572Z,23.58
2023-06-30T07:32:02.072Z,23.65
2023-06-30T07:33:01.484Z,23.67
2023-06-30T07:34:03.526Z,23.64
2023-06-30T07:35:01.313Z,23.57
2023-06-30T07:36:01.794Z,23.55
2023-06-30T07:37:03.897Z,23.51
2023-06-30T07:38:03.333Z,23.55
2023-06-30T07:39:03.837Z,23.62
2023-06-30T07:40:12.200Z,23.58
2023-06-30T07:41:03.821Z,23.58
2023-06-30T07:42:03.128Z,23.6
2023-06-30T07:43:02.527Z,23.7
2023-06-30T07:44:02.993Z,23.77
2023-06-30T07:45:01.797Z,23.89
2023-06-30T07:47:03.372Z,24.02
2023-06-30T07:48:02.302Z,24.03
2023-06-30T07:49:01.633Z,24.02
2023-06-30T07:50:03.862Z,23.99
2023-06-30T07:51:09.364Z,23.99
2023-06-30T07:52:02.026Z,24.03
2023-06-30T07:53:03.094Z,24.08
2023-06-30T07:54:03.673Z,24.12
2023-06-30T07:55:01.365Z,24.12
2023-06-30T07:56:01.844Z,24.04
2023-06-30T07:57:02.918Z,23.98
2023-06-30T07:58:01.748Z,23.96
2023-06-30T07:59:02.249Z,23.94
2023-06-30T08:00:01.698Z,23.88
2023-06-30T08:01:03.950Z,23.85
2023-06-30T08:02:01.588Z,23.89
2023-06-30T08:03:03.912Z,23.91
2023-06-30T08:04:01.669Z,23.97
2023-06-30T08:05:03.618Z,23.96
2023-06-30T08:06:01.648Z,23.95
2023-06-30T08:07:01.877Z,23.9
2023-06-30T08:08:01.365Z,23.85
2023-06-30T08:09:03.437Z,23.86
2023-06-30T08:10:03.972Z,23.94
2023-06-30T08:11:01.663Z,23.99
2023-06-30T08:12:02.141Z,24.05
2023-06-30T08:13:01.627Z,24.09
2023-06-30T08:14:03.797Z,24.12
2023-06-30T08:15:01.446Z,24.1
2023-06-30T08:16:03.610Z,24.13
2023-06-30T08:17:02.930Z,24.15
2023-06-30T08:18:10.128Z,24.14
2023-06-30T08:19:01.332Z,24.14
2023-06-30T08:20:01.893Z,24.12
2023-06-30T08:21:02.227Z,24
2023-06-30T08:22:03.367Z,23.92
2023-06-30T08:23:02.061Z,23.92
2023-06-30T08:24:01.523Z,23.96
2023-06-30T08:25:01.991Z,24.01
2023-06-30T08:26:01.441Z,24.09
2023-06-30T08:27:01.891Z,24.15
2023-06-30T08:28:02.988Z,24.24
2023-06-30T08:29:01.843Z,24.31
2023-06-30T08:31:01.735Z,24.43
2023-06-30T08:32:02.170Z,24.42
2023-06-30T08:33:03.338Z,24.4
2023-06-30T08:34:02.100Z,24.35
2023-06-30T08:35:03.175Z,24.39
2023-06-30T08:36:02.033Z,24.42
2023-06-30T08:37:01.452Z,24.4
2023-06-30T08:38:01.912Z,24.47
2023-06-30T08:39:03.023Z,24.56
2023-06-30T08:40:03.490Z,24.59
2023-06-30T08:41:04.277Z,24.64
2023-06-30T08:42:03.361Z,24.55
2023-06-30T08:43:02.158Z,24.51
2023-06-30T08:44:03.251Z,24.51
2023-06-30T08:45:02.043Z,24.43
2023-06-30T08:46:01.500Z,24.48
2023-06-30T08:47:03.695Z,24.59
2023-06-30T08:48:03.120Z,24.75
2023-06-30T08:49:01.850Z,24.86
2023-06-30T08:50:02.925Z,24.94
2023-06-30T08:51:01.725Z,25.01
2023-06-30T08:52:03.838Z,25.04
2023-06-30T08:53:01.620Z,25.07
2023-06-30T08:54:03.747Z,25.02
2023-06-30T08:55:03.176Z,25
2023-06-30T08:56:03.597Z,25.02
2023-06-30T08:57:01.364Z,25.09
2023-06-30T08:58:13.478Z,25.17
2023-06-30T08:59:02.283Z,25.19
2023-06-30T09:00:03.410Z,25.21
2023-06-30T09:01:03.901Z,25.24
2023-06-30T09:02:03.292Z,25.23
2023-06-30T09:03:02.139Z,25.27
2023-06-30T09:04:01.569Z,25.36
2023-06-30T09:05:03.720Z,25.37
2023-06-30T09:06:03.051Z,25.31
2023-06-30T09:07:03.573Z,25.36
2023-06-30T09:08:01.285Z,25.44
2023-06-30T09:09:01.776Z,25.51
2023-06-30T09:10:02.218Z,25.53
2023-06-30T09:11:03.319Z,25.53
2023-06-30T09:12:03.760Z,25.53
2023-06-30T09:13:01.565Z,25.48
2023-06-30T09:14:02.025Z,25.48
2023-06-30T09:15:01.578Z,25.49
2023-06-30T09:16:01.958Z,25.46
2023-06-30T09:17:01.390Z,25.47
2023-06-30T09:18:03.531Z,25.52
2023-06-30T09:19:02.991Z,25.59
2023-06-30T09:20:03.366Z,25.62
2023-06-30T09:21:02.199Z,25.59
2023-06-30T09:22:50.918Z,25.5
2023-06-30T09:23:03.717Z,25.46
2023-06-30T09:24:01.485Z,25.46
2023-06-30T09:25:03.652Z,25.53
2023-06-30T09:26:03.091Z,25.56
2023-06-30T09:27:01.842Z,25.52
2023-06-30T09:28:01.401Z,25.5
2023-06-30T09:29:03.407Z,25.37
2023-06-30T09:30:02.234Z,25.37
2023-06-30T09:31:03.303Z,25.35
2023-06-30T09:32:03.763Z,25.15
2023-06-30T09:33:01.628Z,25.04
2023-06-30T09:34:02.009Z,25.12
2023-06-30T09:35:03.090Z,25.17
2023-06-30T09:36:01.945Z,25.23
2023-06-30T09:37:03.015Z,25.25
2023-06-30T09:38:03.435Z,25.24
2023-06-30T09:39:02.238Z,25.3
2023-06-30T09:40:03.375Z,25.37
2023-06-30T09:41:02.165Z,25.48
2023-06-30T09:42:03.210Z,25.58
2023-06-30T09:43:02.072Z,25.58
2023-06-30T09:44:03.153Z,25.62
2023-06-30T09:45:01.990Z,25.74
2023-06-30T09:46:01.578Z,25.78
2023-06-30T09:47:01.910Z,25.82
2023-06-30T09:48:03.298Z,25.8
2023-06-30T09:49:03.433Z,25.72
2023-06-30T09:50:02.371Z,25.63
2023-06-30T09:51:03.315Z,25.67
2023-06-30T09:52:03.767Z,25.63
2023-06-30T09:53:01.606Z,25.63
2023-06-30T09:54:03.669Z,25.68
2023-06-30T09:55:03.116Z,25.76
2023-06-30T09:56:03.542Z,25.76
2023-06-30T09:57:01.352Z,25.74
2023-06-30T09:58:01.794Z,25.73
2023-06-30T09:59:03.902Z,25.71
2023-06-30T10:00:03.340Z,25.73
2023-06-30T10:01:03.869Z,25.8
2023-06-30T10:02:03.221Z,25.91
2023-06-30T10:03:02.154Z,26.01
2023-06-30T10:04:01.541Z,26.06
2023-06-30T10:05:01.977Z,26.1
2023-06-30T10:06:03.139Z,26.12
2023-06-30T10:07:01.856Z,26.1
2023-06-30T10:08:01.294Z,26.08
2023-06-30T10:09:03.386Z,25.99
2023-06-30T10:10:03.802Z,25.95
2023-06-30T10:11:01.672Z,25.94
2023-06-30T10:12:03.741Z,25.91
2023-06-30T10:13:03.139Z,25.94
2023-06-30T10:14:01.986Z,25.96
2023-06-30T10:15:01.442Z,25.93
2023-06-30T10:16:03.556Z,25.89
2023-06-30T10:17:01.309Z,25.89
2023-06-30T10:18:03.416Z,25.9
2023-06-30T10:19:02.212Z,25.83
2023-06-30T10:20:04.539Z,25.8
2023-06-30T10:21:02.129Z,25.81
2023-06-30T10:22:03.198Z,25.87
2023-06-30T10:23:03.660Z,25.93
2023-06-30T10:24:03.083Z,25.95
2023-06-30T10:25:03.557Z,25.97
2023-06-30T10:26:01.368Z,25.97
2023-06-30T10:27:03.432Z,25.95
2023-06-30T10:28:03.904Z,25.97
2023-06-30T10:29:03.338Z,26.02
2023-06-30T10:30:02.147Z,26.02
2023-06-30T10:31:03.272Z,25.98
2023-06-30T10:32:02.041Z,25.99
2023-06-30T10:33:01.905Z,25.99
2023-06-30T10:34:03.619Z,26.07
2023-06-30T10:35:03.058Z,26.2
2023-06-30T10:36:03.495Z,26.35
2023-06-30T10:37:02.950Z,26.48
2023-06-30T10:38:03.342Z,26.47
2023-06-30T10:39:02.179Z,26.45
2023-06-30T10:40:03.575Z,26.39
2023-06-30T10:41:03.712Z,26.31
2023-06-30T10:42:03.134Z,26.26
2023-06-30T10:43:01.940Z,26.3
2023-06-30T10:44:01.370Z,26.41
2023-06-30T10:45:03.474Z,26.41
2023-06-30T10:46:04.122Z,26.5
2023-06-30T10:47:03.452Z,26.58
2023-06-30T10:48:02.191Z,26.55
2023-06-30T10:49:03.261Z,26.61
2023-06-30T10:50:02.071Z,26.65
2023-06-30T10:51:01.551Z,26.79
2023-06-30T10:52:04.190Z,26.86
2023-06-30T10:53:01.461Z,26.92
2023-06-30T10:54:01.920Z,26.92
2023-06-30T10:55:01.408Z,26.92
2023-06-30T10:56:03.436Z,26.92
2023-06-30T10:58:03.467Z,27.14
2023-06-30T10:59:03.827Z,27.16
2023-06-30T11:00:03.275Z,27.09
2023-06-30T11:01:02.085Z,26.96
2023-06-30T11:02:03.124Z,26.96
2023-06-30T11:03:02.137Z,26.96
2023-06-30T11:04:02.820Z,26.99
2023-06-30T11:05:03.536Z,27.05
2023-06-30T11:06:01.320Z,27.15
2023-06-30T11:07:03.409Z,27.2
2023-06-30T11:08:03.848Z,27.28
2023-06-30T11:09:01.648Z,27.25
2023-06-30T11:10:07.204Z,27.19
2023-06-30T11:11:01.554Z,27.13
2023-06-30T11:12:03.655Z,27.09
2023-06-30T11:13:01.434Z,26.93
2023-06-30T11:14:01.878Z,26.7
2023-06-30T11:15:01.387Z,26.5
2023-06-30T11:16:01.821Z,26.35
2023-06-30T11:17:02.947Z,26.24
2023-06-30T11:18:02.010Z,26.21
2023-06-30T11:19:03.892Z,26.22
2023-06-30T11:20:01.595Z,26.24
2023-06-30T11:21:03.740Z,26.36
2023-06-30T11:22:01.976Z,26.49
2023-06-30T11:23:02.088Z,26.53
2023-06-30T11:24:01.400Z,26.49
2023-06-30T11:25:01.871Z,26.49
2023-06-30T11:26:01.330Z,26.52
2023-06-30T11:27:03.425Z,26.53
2023-06-30T11:28:02.188Z,26.47
2023-06-30T11:29:01.669Z,26.46
2023-06-30T11:30:02.124Z,26.53
2023-06-30T11:31:01.675Z,26.54
2023-06-30T11:32:02.030Z,26.51
2023-06-30T11:33:01.558Z,26.46
2023-06-30T11:34:03.272Z,26.42
2023-06-30T11:35:01.441Z,26.46
2023-06-30T11:36:03.503Z,26.53
2023-06-30T11:37:02.959Z,26.57
2023-06-30T11:38:01.963Z,26.6
2023-06-30T11:39:02.246Z,26.51
2023-06-30T11:40:04.047Z,26.51
2023-06-30T11:41:03.800Z,26.49
2023-06-30T11:42:01.605Z,26.49
2023-06-30T11:43:03.661Z,26.54
2023-06-30T11:44:01.514Z,26.55
2023-06-30T11:45:03.561Z,26.46
2023-06-30T11:46:03.323Z,26.48
2023-06-30T11:47:01.918Z,26.47
2023-06-30T11:48:01.304Z,26.43
2023-06-30T11:49:03.369Z,26.4
2023-06-30T11:50:02.171Z,26.35
2023-06-30T11:51:03.282Z,26.31
2023-06-30T11:52:03.756Z,26.22
2023-06-30T11:53:01.573Z,26.17
2023-06-30T11:54:02.027Z,26.16
2023-06-30T11:55:03.079Z,26.15
2023-06-30T11:56:03.538Z,26.08
2023-06-30T11:57:01.317Z,25.9
2023-06-30T11:58:05.360Z,25.47
2023-06-30T11:59:03.891Z,25.06
2023-06-30T12:00:03.363Z,24.73
2023-06-30T12:01:03.832Z,24.5
2023-06-30T12:02:01.595Z,24.43
2023-06-30T12:03:03.859Z,24.3
2023-06-30T12:04:01.561Z,24.17
2023-06-30T12:05:02.051Z,23.99
2023-06-30T12:06:01.470Z,23.82
2023-06-30T12:07:01.895Z,23.66
2023-06-30T12:08:02.947Z,23.46
2023-06-30T12:09:03.400Z,23.2
2023-06-30T12:10:03.861Z,22.98
2023-06-30T12:11:01.628Z,22.76
2023-06-30T12:12:02.087Z,22.52
2023-06-30T12:13:01.537Z,22.27
2023-06-30T12:14:03.651Z,21.96
2023-06-30T12:15:03.090Z,21.74
2023-06-30T12:16:03.563Z,21.52
2023-06-30T12:17:01.350Z,21.34
2023-06-30T12:18:03.553Z,21.13
2023-06-30T12:19:02.235Z,20.96
2023-06-30T12:20:03.358Z,20.74
2023-06-30T12:21:03.805Z,20.6
2023-06-30T12:22:03.262Z,20.46
2023-06-30T12:23:03.674Z,20.27
2023-06-30T12:24:01.437Z,20.15
2023-06-30T12:25:03.558Z,19.99
2023-06-30T12:26:03.676Z,19.91
2023-06-30T12:27:02.126Z,19.84
2023-06-30T12:28:01.566Z,19.74
2023-06-30T12:29:03.687Z,19.66
2023-06-30T12:30:01.506Z,19.59
2023-06-30T12:31:01.973Z,19.54
2023-06-30T12:32:03.142Z,19.56
2023-06-30T12:33:02.121Z,19.47
2023-06-30T12:34:03.023Z,19.36
2023-06-30T12:35:05.384Z,19.32
2023-06-30T12:36:03.854Z,19.31
2023-06-30T12:37:03.289Z,19.27
2023-06-30T12:38:03.737Z,19.22
2023-06-30T12:39:01.527Z,19.15
2023-06-30T12:40:02.004Z,19.12
2023-06-30T12:41:01.486Z,19.1
2023-06-30T12:42:01.934Z,19.08
2023-06-30T12:43:01.381Z,19.03
2023-06-30T12:44:02.195Z,18.98
2023-06-30T12:45:02.954Z,19.04
2023-06-30T12:46:03.441Z,19.1
2023-06-30T12:47:02.211Z,19.11
2023-06-30T12:48:01.658Z,19.16
2023-06-30T12:49:02.079Z,19.24
2023-06-30T12:50:01.544Z,19.28
2023-06-30T12:51:03.657Z,19.23
2023-06-30T12:52:03.751Z,19.29
2023-06-30T12:53:03.578Z,19.3
2023-06-30T12:54:02.953Z,19.36
2023-06-30T12:55:03.408Z,19.37
2023-06-30T12:56:02.200Z,19.47
2023-06-30T12:57:01.657Z,19.52
2023-06-30T12:58:03.751Z,19.53
2023-06-30T12:59:01.534Z,19.57
2023-06-30T13:00:03.614Z,19.61
2023-06-30T13:01:03.080Z,19.61